Time;durP1;ratioP1;P1;durP2;ratioP2;P2;SDS_P1;SDS_P2;PMS_P1;PMS_P2;Temp;Humidity;BMP_temperature;BMP_pressure;BME280_temperature;BME280_humidity;BME280_pressure;Samples;Min_cycle;Max_cycle;Signal;HPM_P1;HPM_P2
2023/05/08 00:00:20;;;;;;;1999.90;999.90;;;16.40;99.90;;;;;;4993342;28;20253;-74
2023/05/08 00:02:46;;;;;;;1999.90;999.90;;;16.40;99.90;;;;;;4992945;28;20174;-74
2023/05/08 00:05:11;;;;;;;1999.90;999.90;;;16.40;99.90;;;;;;4993172;28;20200;-74
2023/05/08 00:07:37;;;;;;;1999.90;999.90;;;16.50;99.90;;;;;;4993162;28;20247;-74
2023/05/08 00:10:04;;;;;;;1999.90;999.90;;;16.40;99.90;;;;;;4993089;28;20172;-74
2023/05/08 00:12:30;;;;;;;1999.90;999.90;;;16.40;99.90;;;;;;4992804;28;20181;-74
2023/05/08 00:14:56;;;;;;;1999.90;999.90;;;16.40;99.90;;;;;;4992927;28;20462;-74
2023/05/08 00:17:21;;;;;;;1999.90;999.90;;;16.40;99.90;;;;;;4992980;28;20168;-74
2023/05/08 00:19:47;;;;;;;1999.90;999.90;;;16.40;99.90;;;;;;4993003;28;20263;-74
2023/05/08 00:22:13;;;;;;;1999.90;999.90;;;16.30;99.90;;;;;;4992676;28;20209;-74
2023/05/08 00:24:38;;;;;;;1999.90;999.90;;;16.30;99.90;;;;;;4992760;28;20244;-74
2023/05/08 00:27:04;;;;;;;1999.90;999.90;;;16.30;99.90;;;;;;4992923;28;20167;-74
2023/05/08 00:29:30;;;;;;;1999.90;999.90;;;16.30;99.90;;;;;;4992860;28;20787;-74
2023/05/08 00:31:55;;;;;;;1999.90;999.90;;;16.30;99.90;;;;;;4992448;28;20171;-74
2023/05/08 00:34:21;;;;;;;1999.90;999.90;;;16.30;99.90;;;;;;4992793;28;20187;-74
2023/05/08 00:36:46;;;;;;;1999.90;999.90;;;16.30;99.90;;;;;;4992664;28;20290;-74
2023/05/08 00:39:12;;;;;;;1999.90;999.90;;;16.40;99.90;;;;;;4992707;28;20178;-74
2023/05/08 00:41:38;;;;;;;1999.90;999.90;;;16.40;99.90;;;;;;4992431;28;20271;-74
2023/05/08 00:44:03;;;;;;;1999.90;999.90;;;16.30;99.90;;;;;;4992584;28;20188;-74
2023/05/08 00:46:29;;;;;;;1999.90;999.90;;;16.40;99.90;;;;;;4992628;28;20184;-74
2023/05/08 00:48:55;;;;;;;1999.90;999.90;;;16.40;99.90;;;;;;4992662;28;20179;-74
2023/05/08 00:51:21;;;;;;;1999.90;999.90;;;16.40;99.90;;;;;;4991741;28;20415;-74
2023/05/08 00:53:47;;;;;;;1999.90;999.90;;;16.40;99.90;;;;;;4992375;28;20412;-74
2023/05/08 00:56:14;;;;;;;1999.90;999.90;;;16.40;99.90;;;;;;4992417;28;20474;-74
2023/05/08 00:58:42;;;;;;;1999.90;999.90;;;16.40;99.90;;;;;;4992476;28;20165;-74
2023/05/08 01:01:07;;;;;;;1999.90;999.90;;;16.40;99.90;;;;;;4992224;28;20407;-74
2023/05/08 01:03:34;;;;;;;1999.90;999.90;;;16.40;99.90;;;;;;4992495;28;20419;-74
2023/05/08 01:06:05;;;;;;;1999.90;999.90;;;16.30;99.90;;;;;;4992313;28;20294;-74
2023/05/08 01:08:31;;;;;;;1999.90;999.90;;;16.30;99.90;;;;;;4992526;28;20422;-74
2023/05/08 01:11:22;;;;;;;1999.90;999.90;;;16.30;99.90;;;;;;4992159;28;20416;-74
2023/05/08 01:14:28;;;;;;;1999.90;999.90;;;16.30;99.90;;;;;;4992388;28;20460;-74
2023/05/08 01:17:10;;;;;;;1999.90;999.90;;;16.30;99.90;;;;;;4991221;28;20487;-74
2023/05/08 01:19:41;;;;;;;1999.90;999.90;;;16.20;99.90;;;;;;4992357;28;20508;-74
2023/05/08 01:22:42;;;;;;;1999.90;999.90;;;16.20;99.90;;;;;;4992061;28;20419;-74
2023/05/08 01:25:39;;;;;;;1999.90;999.90;;;16.10;99.90;;;;;;4992176;28;20421;-74
2023/05/08 01:28:31;;;;;;;1999.90;999.90;;;16.00;99.90;;;;;;4992260;28;20398;-74
2023/05/08 01:31:35;;;;;;;1999.90;999.90;;;16.00;99.90;;;;;;4991958;28;20442;-74
2023/05/08 01:34:09;;;;;;;1999.90;999.90;;;15.90;99.90;;;;;;4988537;28;20447;-74
2023/05/08 01:36:49;;;;;;;1999.90;999.90;;;15.90;99.90;;;;;;4992189;28;20933;-74
2023/05/08 01:39:38;;;;;;;1999.90;999.90;;;15.90;99.90;;;;;;4992217;28;20403;-74
2023/05/08 01:42:35;;;;;;;1999.90;999.90;;;15.80;99.90;;;;;;4991871;28;20452;-74
2023/05/08 01:45:06;;;;;;;1999.90;999.90;;;15.80;99.90;;;;;;4964878;28;20523;-74
2023/05/08 01:47:36;;;;;;;1999.90;999.90;;;15.80;99.90;;;;;;4992025;28;20421;-74
2023/05/08 01:50:07;;;;;;;1999.90;999.90;;;15.70;99.90;;;;;;4992105;28;20394;-74
2023/05/08 01:52:50;;;;;;;1999.90;999.90;;;15.70;99.90;;;;;;4991826;28;20409;-74
2023/05/08 01:55:22;;;;;;;1999.90;999.90;;;15.70;99.90;;;;;;4991958;28;20458;-74
2023/05/08 01:57:50;;;;;;;1999.90;999.90;;;15.70;99.90;;;;;;4992048;28;20412;-74
2023/05/08 02:00:18;;;;;;;1999.90;999.90;;;15.60;99.90;;;;;;4991996;28;20488;-74
2023/05/08 02:02:45;;;;;;;1999.90;999.90;;;15.60;99.90;;;;;;4992083;28;20421;-74
2023/05/08 02:05:13;;;;;;;1999.90;999.90;;;15.60;99.90;;;;;;4995271;28;20430;-74
2023/05/08 02:07:42;;;;;;;1999.90;999.90;;;15.60;99.90;;;;;;4995371;28;20450;-74
2023/05/08 02:10:10;;;;;;;1999.90;999.90;;;15.60;99.90;;;;;;4995377;28;20415;-74
2023/05/08 02:12:37;;;;;;;1999.90;999.90;;;15.50;99.90;;;;;;4995005;28;20755;-74
2023/05/08 02:15:06;;;;;;;1999.90;999.90;;;15.50;99.90;;;;;;4994959;28;20888;-74
2023/05/08 02:17:33;;;;;;;1999.90;999.90;;;15.40;99.90;;;;;;4995176;28;20418;-74
2023/05/08 02:20:02;;;;;;;1999.90;999.90;;;15.40;99.90;;;;;;4995132;28;20416;-74
2023/05/08 02:22:29;;;;;;;1999.90;999.90;;;15.30;99.90;;;;;;4994725;28;20421;-74
2023/05/08 02:24:56;;;;;;;1999.90;999.90;;;15.30;99.90;;;;;;4995009;28;20518;-74
2023/05/08 02:27:27;;;;;;;1999.90;999.90;;;15.20;99.90;;;;;;4994975;28;20429;-74
2023/05/08 02:29:54;;;;;;;1999.90;999.90;;;15.20;99.90;;;;;;4994858;28;20416;-74
2023/05/08 02:32:20;;;;;;;1999.90;999.90;;;15.20;99.90;;;;;;4994849;28;20418;-74
2023/05/08 02:34:48;;;;;;;1999.90;999.90;;;15.20;99.90;;;;;;4994907;28;20780;-74
2023/05/08 02:37:17;;;;;;;1999.90;999.90;;;15.20;99.90;;;;;;4994847;28;20416;-74
2023/05/08 02:39:43;;;;;;;1999.90;999.90;;;15.20;99.90;;;;;;4994733;28;20417;-74
2023/05/08 02:42:09;;;;;;;1999.90;999.90;;;15.20;99.90;;;;;;4994479;28;20808;-74
2023/05/08 02:44:35;;;;;;;1999.90;999.90;;;15.20;99.90;;;;;;4994622;28;20507;-74
2023/05/08 02:47:24;;;;;;;1999.90;999.90;;;15.10;99.90;;;;;;4994910;28;20184;-73
2023/05/08 02:50:08;;;;;;;1999.90;999.90;;;15.10;99.90;;;;;;4994857;28;20187;-73
2023/05/08 02:52:41;;;;;;;1999.90;999.90;;;15.20;99.90;;;;;;4994583;28;20419;-73
2023/05/08 02:55:22;;;;;;;1999.90;999.90;;;15.20;99.90;;;;;;4994362;28;20474;-73
2023/05/08 02:58:08;;;;;;;1999.90;999.90;;;15.10;99.90;;;;;;4994606;28;20752;-73
2023/05/08 03:00:43;;;;;;;1999.90;999.90;;;15.10;99.90;;;;;;4954830;28;20417;-73
2023/05/08 03:03:16;;;;;;;1999.90;999.90;;;15.10;99.90;;;;;;4994149;28;20412;-73
2023/05/08 03:05:48;;;;;;;1999.90;999.90;;;15.10;99.90;;;;;;4994488;28;20435;-73
2023/05/08 03:08:17;;;;;;;1999.90;999.90;;;15.00;99.90;;;;;;4994467;28;20759;-73
2023/05/08 03:10:45;;;;;;;1999.90;999.90;;;15.00;99.90;;;;;;4994317;28;20408;-73
2023/05/08 03:13:12;;;;;;;1999.90;999.90;;;15.00;99.90;;;;;;4993806;28;20415;-73
2023/05/08 03:15:50;;;;;;;1999.90;999.90;;;15.00;99.90;;;;;;4993916;28;20490;-73
2023/05/08 03:18:20;;;;;;;1999.90;999.90;;;15.00;99.90;;;;;;4994272;28;20513;-73
2023/05/08 03:20:53;;;;;;;1999.90;999.90;;;15.00;99.90;;;;;;4994061;28;20506;-73
2023/05/08 03:23:20;;;;;;;1999.90;999.90;;;14.90;99.90;;;;;;4994144;28;20406;-73
2023/05/08 03:25:46;;;;;;;1999.90;999.90;;;14.90;99.90;;;;;;4993966;28;20432;-73
2023/05/08 03:28:13;;;;;;;1999.90;999.90;;;14.80;99.90;;;;;;4994167;28;20412;-73
2023/05/08 03:30:40;;;;;;;1999.90;999.90;;;14.80;99.90;;;;;;4994039;28;20165;-73
2023/05/08 03:33:07;;;;;;;1999.90;999.90;;;14.70;99.90;;;;;;4993657;28;20464;-73
2023/05/08 03:35:36;;;;;;;1999.90;999.90;;;14.70;99.90;;;;;;4993863;28;20882;-73
2023/05/08 03:38:06;;;;;;;1999.90;999.90;;;14.60;99.90;;;;;;4993647;28;20490;-74
2023/05/08 03:40:41;;;;;;;1999.90;999.90;;;14.60;99.90;;;;;;4993619;28;20409;-74
2023/05/08 03:43:07;;;;;;;1999.90;999.90;;;14.50;99.90;;;;;;4993313;28;20396;-74
2023/05/08 03:45:38;;;;;;;1999.90;999.90;;;14.50;99.90;;;;;;4993405;28;20429;-73
2023/05/08 03:48:05;;;;;;;1999.90;999.90;;;14.40;99.90;;;;;;4993349;28;20429;-73
2023/05/08 03:50:31;;;;;;;1999.90;999.90;;;14.40;99.90;;;;;;4993409;28;20423;-74
2023/05/08 03:52:58;;;;;;;1999.90;999.90;;;14.40;99.90;;;;;;4993153;28;20409;-74
2023/05/08 03:55:24;;;;;;;1999.90;999.90;;;14.40;99.90;;;;;;4993221;28;20463;-74
2023/05/08 03:57:56;;;;;;;1999.90;999.90;;;14.40;99.90;;;;;;4993463;28;20438;-74
2023/05/08 04:00:43;;;;;;;1999.90;999.90;;;14.40;99.90;;;;;;4993458;28;20825;-74
2023/05/08 04:03:24;;;;;;;1999.90;999.90;;;14.40;99.90;;;;;;4992966;28;20409;-74
2023/05/08 04:06:13;;;;;;;1999.90;999.90;;;14.40;99.90;;;;;;4993211;28;20542;-74
2023/05/08 04:08:47;;;;;;;1999.90;999.90;;;14.40;99.90;;;;;;4982718;28;20806;-74
2023/05/08 04:11:41;;;;;;;1999.90;999.90;;;14.40;99.90;;;;;;4992922;28;20423;-74
2023/05/08 04:14:11;;;;;;;1999.90;999.90;;;14.30;99.90;;;;;;4992920;28;20490;-74
2023/05/08 04:16:44;;;;;;;1999.90;999.90;;;14.30;99.90;;;;;;4993003;28;20448;-74
2023/05/08 04:19:18;;;;;;;1999.90;999.90;;;14.30;99.90;;;;;;4993003;28;20443;-74
2023/05/08 04:21:44;;;;;;;1999.90;999.90;;;14.30;99.90;;;;;;4992705;28;20411;-74
2023/05/08 04:24:13;;;;;;;1999.90;999.90;;;14.30;99.90;;;;;;4992688;28;20422;-74
2023/05/08 04:26:39;;;;;;;1999.90;999.90;;;14.30;99.90;;;;;;4992115;28;20783;-73
2023/05/08 04:29:06;;;;;;;1999.90;999.90;;;14.40;99.90;;;;;;4992830;28;20423;-73
2023/05/08 04:31:34;;;;;;;1999.90;999.90;;;14.30;99.90;;;;;;4992560;28;20410;-74
2023/05/08 04:34:01;;;;;;;1999.90;999.90;;;14.40;99.90;;;;;;4992655;28;20428;-74
2023/05/08 04:36:30;;;;;;;1999.90;999.90;;;14.40;99.90;;;;;;4992687;28;20563;-74
2023/05/08 04:38:55;;;;;;;1999.90;999.90;;;14.40;99.90;;;;;;4992580;28;20416;-74
2023/05/08 04:41:21;;;;;;;1999.90;999.90;;;14.40;99.90;;;;;;4992427;28;20413;-73
2023/05/08 04:43:47;;;;;;;1999.90;999.90;;;14.70;99.90;;;;;;4993149;28;20553;-73
2023/05/08 04:46:13;;;;;;;1999.90;999.90;;;14.40;99.90;;;;;;4993060;28;20196;-73
2023/05/08 04:48:38;;;;;;;1999.90;999.90;;;14.40;99.90;;;;;;4993131;28;20432;-73
2023/05/08 04:51:04;;;;;;;1999.90;999.90;;;14.30;99.90;;;;;;4992438;28;20174;-73
2023/05/08 04:53:29;;;;;;;1999.90;999.90;;;14.30;99.90;;;;;;4993013;28;20548;-73
2023/05/08 04:55:56;;;;;;;1999.90;999.90;;;14.30;99.90;;;;;;4992642;28;20575;-73
2023/05/08 04:58:22;;;;;;;1999.90;999.90;;;14.30;99.90;;;;;;4992850;28;20216;-73
2023/05/08 05:00:47;;;;;;;1999.90;999.90;;;14.30;99.90;;;;;;4992792;28;20922;-73
2023/05/08 05:03:13;;;;;;;1999.90;999.90;;;14.30;99.90;;;;;;4992496;28;20170;-73
2023/05/08 05:05:38;;;;;;;1999.90;999.90;;;14.40;99.90;;;;;;4992640;28;20200;-73
2023/05/08 05:08:04;;;;;;;1999.90;999.90;;;14.40;99.90;;;;;;4992641;28;20170;-73
2023/05/08 05:10:30;;;;;;;1999.90;999.90;;;14.50;99.90;;;;;;4992854;28;20260;-73
2023/05/08 05:12:55;;;;;;;1999.90;999.90;;;14.60;99.90;;;;;;4992409;28;20458;-73
2023/05/08 05:15:21;;;;;;;1999.90;999.90;;;14.70;99.90;;;;;;4992731;28;20207;-73
2023/05/08 05:17:47;;;;;;;1999.90;999.90;;;14.70;99.90;;;;;;4992620;28;20254;-73
2023/05/08 05:20:13;;;;;;;1999.90;999.90;;;14.70;99.90;;;;;;4992780;28;20655;-73
2023/05/08 05:22:39;;;;;;;1999.90;999.90;;;14.70;99.90;;;;;;4992377;28;20173;-73
2023/05/08 05:25:05;;;;;;;1999.90;999.90;;;14.80;99.90;;;;;;4975199;28;20451;-73
2023/05/08 05:27:34;;;;;;;1999.90;999.90;;;14.80;99.90;;;;;;4992642;28;20177;-73
2023/05/08 05:30:00;;;;;;;1999.90;999.90;;;14.80;99.90;;;;;;4975085;28;20523;-73
2023/05/08 05:32:26;;;;;;;1999.90;999.90;;;14.90;99.90;;;;;;4974674;28;21004;-73
2023/05/08 05:34:52;;;;;;;1999.90;999.90;;;15.00;99.90;;;;;;4992377;28;20243;-73
2023/05/08 05:37:18;;;;;;;1999.90;999.90;;;15.00;99.90;;;;;;4976397;28;20205;-73
2023/05/08 05:39:44;;;;;;;1999.90;999.90;;;15.00;99.90;;;;;;4996317;28;20450;-73
2023/05/08 05:42:09;;;;;;;1999.90;999.90;;;15.00;99.90;;;;;;4996076;28;20176;-73
2023/05/08 05:44:36;;;;;;;1999.90;999.90;;;15.00;99.90;;;;;;4996047;28;20560;-73
2023/05/08 05:47:03;;;;;;;1999.90;999.90;;;15.00;99.90;;;;;;4996616;28;20224;-73
2023/05/08 05:49:29;;;;;;;1999.90;999.90;;;15.10;99.90;;;;;;4995968;28;20466;-73
2023/05/08 05:51:55;;;;;;;1999.90;999.90;;;15.10;99.90;;;;;;4995529;28;20462;-73
2023/05/08 05:54:21;;;;;;;1999.90;999.90;;;15.10;99.90;;;;;;4995832;28;20746;-73
2023/05/08 05:56:47;;;;;;;1999.90;999.90;;;15.10;99.90;;;;;;4995871;28;20458;-73
2023/05/08 05:59:12;;;;;;;1999.90;999.90;;;15.20;99.90;;;;;;4995809;28;20176;-73
2023/05/08 06:01:38;;;;;;;1999.90;999.90;;;15.20;99.90;;;;;;4995609;28;20409;-73
2023/05/08 06:04:04;;;;;;;1999.90;999.90;;;15.30;99.90;;;;;;4995920;28;20728;-73
2023/05/08 06:06:30;;;;;;;1999.90;999.90;;;15.30;99.90;;;;;;4978261;28;20181;-73
2023/05/08 06:08:56;;;;;;;1999.90;999.90;;;15.30;99.90;;;;;;4978117;28;20479;-73
2023/05/08 06:11:22;;;;;;;1999.90;999.90;;;15.30;99.90;;;;;;4995390;28;20822;-73
2023/05/08 06:13:48;;;;;;;1999.90;999.90;;;15.40;99.90;;;;;;4995631;28;20528;-73
2023/05/08 06:16:14;;;;;;;1999.90;999.90;;;15.50;99.90;;;;;;4995728;28;20829;-73
2023/05/08 06:18:40;;;;;;;1999.90;999.90;;;15.50;99.90;;;;;;4995670;28;20180;-73
2023/05/08 06:21:06;;;;;;;1999.90;999.90;;;15.60;99.90;;;;;;4995297;28;20180;-73
2023/05/08 06:23:32;;;;;;;1999.90;999.90;;;15.70;99.90;;;;;;4995358;28;20432;-73
2023/05/08 06:25:58;;;;;;;1999.90;999.90;;;15.70;99.90;;;;;;4995247;28;20482;-74
2023/05/08 06:28:24;;;;;;;1999.90;999.90;;;15.80;99.90;;;;;;4995328;28;20443;-73
2023/05/08 06:30:51;;;;;;;1999.90;999.90;;;15.80;99.90;;;;;;4995801;28;20199;-73
2023/05/08 06:33:16;;;;;;;1999.90;999.90;;;15.90;99.90;;;;;;4995759;28;20418;-73
2023/05/08 06:35:46;;;;;;;1999.90;999.90;;;16.00;99.90;;;;;;4995286;28;20460;-74
2023/05/08 06:38:12;;;;;;;1999.90;999.90;;;15.90;99.90;;;;;;4994849;28;20545;-74
2023/05/08 06:40:42;;;;;;;1999.90;999.90;;;16.00;99.90;;;;;;4994782;28;20414;-74
2023/05/08 06:43:07;;;;;;;1999.90;999.90;;;16.00;99.90;;;;;;4994591;28;20504;-74
2023/05/08 06:45:33;;;;;;;1999.90;999.90;;;16.10;99.90;;;;;;4994559;28;20525;-74
2023/05/08 06:47:58;;;;;;;1999.90;999.90;;;16.20;99.90;;;;;;4994247;28;20594;-74
2023/05/08 06:50:24;;;;;;;1999.90;999.90;;;16.30;99.90;;;;;;4994080;28;20237;-74
2023/05/08 06:52:50;;;;;;;1999.90;999.90;;;16.50;99.90;;;;;;4994465;28;20170;-74
2023/05/08 06:55:16;;;;;;;1999.90;999.90;;;16.60;99.90;;;;;;4994305;28;21032;-74
2023/05/08 06:57:41;;;;;;;1999.90;999.90;;;16.80;99.90;;;;;;4994460;28;20207;-74
2023/05/08 07:00:08;;;;;;;1999.90;999.90;;;16.90;99.90;;;;;;4994481;28;20165;-74
2023/05/08 07:02:34;;;;;;;1999.90;999.90;;;16.90;99.90;;;;;;4993959;28;20174;-74
2023/05/08 07:04:59;;;;;;;1999.90;999.90;;;16.90;99.90;;;;;;4994208;28;20994;-74
2023/05/08 07:07:25;;;;;;;1999.90;999.90;;;17.00;99.90;;;;;;4994971;28;20638;-73
2023/05/08 07:09:51;;;;;;;1999.90;999.90;;;;;;;;;;4995757;28;20222;-74
2023/05/08 07:12:17;;;;;;;1999.90;999.90;;;17.20;99.90;;;;;;4977661;28;20169;-73
2023/05/08 07:14:42;;;;;;;1999.90;999.90;;;17.30;99.90;;;;;;4995376;28;20434;-73
2023/05/08 07:17:08;;;;;;;1999.90;999.90;;;17.40;99.90;;;;;;4995376;28;20230;-73
2023/05/08 07:19:35;;;;;;;1999.90;999.90;;;17.50;99.90;;;;;;4995126;28;20193;-73
2023/05/08 07:22:01;;;;;;;1999.90;999.90;;;17.70;99.90;;;;;;4995218;28;20245;-74
2023/05/08 07:24:27;;;;;;;1999.90;999.90;;;17.80;99.90;;;;;;4995713;28;20420;-74
2023/05/08 07:26:52;;;;;;;1999.90;999.90;;;17.80;99.90;;;;;;4995171;28;20412;-73
2023/05/08 07:29:19;;;;;;;1999.90;999.90;;;17.70;99.90;;;;;;4995262;28;20178;-73
2023/05/08 07:31:45;;;;;;;1999.90;999.90;;;17.70;99.90;;;;;;4994238;28;20177;-73
2023/05/08 07:34:11;;;;;;;1999.90;999.90;;;17.80;99.90;;;;;;4994350;28;20785;-74
2023/05/08 07:36:37;;;;;;;1999.90;999.90;;;17.80;99.90;;;;;;4976934;28;20473;-73
2023/05/08 07:39:03;;;;;;;1999.90;999.90;;;17.90;99.90;;;;;;4976606;28;20182;-73
2023/05/08 07:41:29;;;;;;;1999.90;999.90;;;17.90;99.90;;;;;;4993796;28;20773;-73
2023/05/08 07:43:54;;;;;;;1999.90;999.90;;;17.90;99.90;;;;;;4994414;28;20418;-74
2023/05/08 07:46:20;;;;;;;1999.90;999.90;;;18.00;99.90;;;;;;4993898;28;20184;-73
2023/05/08 07:48:46;;;;;;;1999.90;999.90;;;17.90;99.90;;;;;;4994150;28;20193;-74
2023/05/08 07:51:12;;;;;;;1999.90;999.90;;;18.00;99.90;;;;;;4993940;28;20426;-73
2023/05/08 07:53:37;;;;;;;1999.90;999.90;;;18.00;99.90;;;;;;4994426;28;20207;-73
2023/05/08 07:56:04;;;;;;;1999.90;999.90;;;18.20;99.90;;;;;;4994163;28;20492;-73
2023/05/08 07:58:30;;;;;;;1999.90;999.90;;;18.20;99.90;;;;;;4994101;28;20169;-74
2023/05/08 08:00:55;;;;;;;1999.90;999.90;;;18.30;99.90;;;;;;4993959;28;20418;-73
2023/05/08 08:03:21;;;;;;;1999.90;999.90;;;18.30;99.90;;;;;;4994349;28;20188;-74
2023/05/08 08:05:47;;;;;;;1999.90;999.90;;;18.40;99.90;;;;;;4994197;28;20244;-73
2023/05/08 08:08:12;;;;;;;1999.90;999.90;;;18.40;99.90;;;;;;4988817;28;20185;-73
2023/05/08 08:10:38;;;;;;;1999.90;999.90;;;18.40;99.90;;;;;;4957265;28;20182;-73
2023/05/08 08:13:04;;;;;;;1999.90;999.90;;;18.40;99.90;;;;;;4974831;28;20178;-73
2023/05/08 08:15:30;;;;;;;1999.90;999.90;;;18.50;99.90;;;;;;4975295;28;21044;-73
2023/05/08 08:17:56;;;;;;;1999.90;999.90;;;18.40;99.90;;;;;;4974876;28;20467;-75
2023/05/08 08:20:22;;;;;;;1999.90;999.90;;;18.40;99.90;;;;;;4983994;28;20187;-73
2023/05/08 08:22:48;;;;;;;1999.90;999.90;;;18.50;99.90;;;;;;4969622;28;20180;-73
2023/05/08 08:25:14;;;;;;;1999.90;999.90;;;18.50;99.90;;;;;;4989151;28;20790;-71
2023/05/08 08:27:39;;;;;;;1999.90;999.90;;;18.50;99.90;;;;;;4989399;28;20193;-71
2023/05/08 08:30:05;;;;;;;1999.90;999.90;;;18.50;99.90;;;;;;4989278;28;20566;-71
2023/05/08 08:32:31;;;;;;;1999.90;999.90;;;18.40;99.90;;;;;;4988802;28;20195;-73
2023/05/08 08:34:56;;;;;;;1999.90;999.90;;;18.30;99.90;;;;;;4988251;28;20434;-74
2023/05/08 08:37:23;;;;;;;1999.90;999.90;;;18.40;99.90;;;;;;4988931;28;20180;-71
2023/05/08 08:39:49;;;;;;;1999.90;999.90;;;18.50;99.90;;;;;;4988634;28;20191;-72
2023/05/08 08:42:15;;;;;;;1999.90;999.90;;;18.60;99.90;;;;;;4935820;28;20413;-72
2023/05/08 08:44:41;;;;;;;1999.90;999.90;;;18.70;99.90;;;;;;4969314;28;20426;-71
2023/05/08 08:47:13;;;;;;;1999.90;999.90;;;18.80;99.90;;;;;;4969191;28;20269;-70
2023/05/08 08:49:48;;;;;;;1999.90;999.90;;;19.00;99.90;;;;;;4968660;28;20421;-71
2023/05/08 08:52:39;;;;;;;1999.90;999.90;;;19.00;99.90;;;;;;4968361;28;20416;-72
2023/05/08 08:55:08;;;;;;;1999.90;999.90;;;19.00;99.90;;;;;;4969468;28;20431;-73
2023/05/08 08:57:38;;;;;;;1999.90;999.90;;;19.00;99.90;;;;;;4968708;28;20410;-72
2023/05/08 09:00:07;;;;;;;1999.90;999.90;;;19.00;99.90;;;;;;4968596;28;20441;-72
2023/05/08 09:02:33;;;;;;;1999.90;999.90;;;19.10;99.90;;;;;;4968651;28;20429;-72
2023/05/08 09:05:00;;;;;;;1999.90;999.90;;;19.20;99.90;;;;;;4969025;28;20446;-72
2023/05/08 09:07:26;;;;;;;1999.90;999.90;;;19.50;99.90;;;;;;4968539;28;20899;-72
2023/05/08 09:09:53;;;;;;;1999.90;999.90;;;19.70;99.90;;;;;;4968454;28;20422;-74
2023/05/08 09:12:18;;;;;;;1999.90;999.90;;;20.00;99.90;;;;;;4990733;28;20442;-73
2023/05/08 09:14:44;;;;;;;1999.90;999.90;;;20.20;99.90;;;;;;5004872;28;20489;-71
2023/05/08 09:17:09;;;;;;;1999.90;999.90;;;20.40;99.90;;;;;;5007630;28;20255;-72
2023/05/08 09:19:35;;;;;;;1999.90;999.90;;;20.60;99.90;;;;;;5007621;28;20270;-73
2023/05/08 09:22:05;;;;;;;1999.90;999.90;;;20.70;99.90;;;;;;4995724;28;20187;-73
2023/05/08 09:24:54;;;;;;;1999.90;999.90;;;20.80;99.90;;;;;;4996847;28;20438;-72
2023/05/08 09:27:21;;;;;;;1999.90;999.90;;;21.00;99.90;;;;;;5004604;28;20905;-72
2023/05/08 09:30:08;;;;;;;1999.90;999.90;;;21.10;99.90;;;;;;4980082;28;20420;-71
2023/05/08 09:32:36;;;;;;;1999.90;999.90;;;21.20;99.90;;;;;;4996265;28;20484;-72
2023/05/08 09:35:02;;;;;;;1999.90;999.90;;;21.40;99.90;;;;;;4999549;28;20409;-71
2023/05/08 09:37:28;;;;;;;1999.90;999.90;;;21.30;99.90;;;;;;4997072;28;20443;-71
2023/05/08 09:40:11;;;;;;;1999.90;999.90;;;21.50;99.90;;;;;;4996721;28;20420;-71
2023/05/08 09:42:37;;;;;;;1999.90;999.90;;;21.50;99.90;;;;;;4996132;28;20375;-71
2023/05/08 09:45:03;;;;;;;1999.90;999.90;;;21.70;99.90;;;;;;4996298;28;20443;-71
2023/05/08 09:47:29;;;;;;;1999.90;999.90;;;21.80;99.90;;;;;;4996322;28;20405;-71
2023/05/08 09:50:08;;;;;;;1999.90;999.90;;;21.90;99.90;;;;;;4997158;28;20407;-71
2023/05/08 09:53:05;;;;;;;1999.90;999.90;;;21.90;99.90;;;;;;4997596;28;20411;-73
2023/05/08 09:55:45;;;;;;;1999.90;999.90;;;22.00;99.90;;;;;;4994507;28;21065;-73
2023/05/08 09:58:11;;;;;;;1999.90;999.90;;;22.00;99.90;;;;;;4995564;28;20441;-73
2023/05/08 10:00:38;;;;;;;1999.90;999.90;;;22.20;99.90;;;;;;4995542;28;20412;-74
2023/05/08 10:03:06;;;;;;;1999.90;999.90;;;22.20;99.90;;;;;;4994897;28;20539;-73
2023/05/08 10:05:35;;;;;;;1999.90;999.90;;;22.20;99.90;;;;;;4995507;28;20809;-73
2023/05/08 10:08:20;;;;;;;1999.90;999.90;;;22.20;99.90;;;;;;4995243;28;20439;-73
2023/05/08 10:10:46;;;;;;;1999.90;999.90;;;22.30;99.90;;;;;;4995050;28;20387;-73
2023/05/08 10:13:12;;;;;;;1999.90;999.90;;;22.40;99.90;;;;;;4996067;28;20431;-74
2023/05/08 10:15:41;;;;;;;1999.90;999.90;;;22.60;99.90;;;;;;4995201;28;20434;-73
2023/05/08 10:18:08;;;;;;;1999.90;999.90;;;22.90;99.90;;;;;;4994478;28;20413;-73
2023/05/08 10:20:36;;;;;;;1999.90;999.90;;;23.20;99.90;;;;;;4994601;28;20891;-72
2023/05/08 10:23:02;;;;;;;1999.90;999.90;;;23.60;99.90;;;;;;4993903;28;20798;-73
2023/05/08 10:25:33;;;;;;;1999.90;999.90;;;23.70;99.90;;;;;;4994392;28;20429;-72
2023/05/08 10:28:10;;;;;;;1999.90;999.90;;;23.70;99.90;;;;;;4987039;28;20395;-73
2023/05/08 10:30:41;;;;;;;1999.90;999.90;;;23.80;99.90;;;;;;4994831;28;20944;-73
2023/05/08 10:33:09;;;;;;;1999.90;999.90;;;23.90;99.90;;;;;;4994030;28;20475;-71
2023/05/08 10:35:36;;;;;;;1999.90;999.90;;;24.00;99.90;;;;;;4994533;28;20546;-73
2023/05/08 10:38:03;;;;;;;1999.90;999.90;;;23.90;99.90;;;;;;4994660;28;20459;-74
2023/05/08 10:40:29;;;;;;;1999.90;999.90;;;23.70;99.90;;;;;;4994349;28;20394;-74
2023/05/08 10:42:56;;;;;;;1999.90;999.90;;;23.60;99.90;;;;;;4994198;28;20384;-74
2023/05/08 10:45:23;;;;;;;1999.90;999.90;;;23.50;99.90;;;;;;4994777;28;20212;-74
2023/05/08 10:48:15;;;;;;;1999.90;999.90;;;23.50;99.90;;;;;;4994137;28;20439;-74
2023/05/08 10:51:02;;;;;;;1999.90;999.90;;;23.50;99.90;;;;;;4994730;28;20487;-74
2023/05/08 10:53:51;;;;;;;1999.90;999.90;;;23.70;99.90;;;;;;4994489;28;20379;-74
2023/05/08 10:56:16;;;;;;;1999.90;999.90;;;23.80;99.90;;;;;;4994572;28;20483;-74
2023/05/08 10:58:42;;;;;;;1999.90;999.90;;;24.00;99.90;;;;;;4994691;28;20380;-74
2023/05/08 11:01:07;;;;;;;1999.90;999.90;;;24.20;99.90;;;;;;4994390;28;20196;-74
2023/05/08 11:03:49;;;;;;;1999.90;999.90;;;24.50;99.90;;;;;;4995280;28;20178;-74
2023/05/08 11:06:15;;;;;;;1999.90;999.90;;;24.80;99.90;;;;;;4995225;28;20181;-74
2023/05/08 11:08:49;;;;;;;1999.90;999.90;;;25.20;99.90;;;;;;4994726;28;20413;-74
2023/05/08 11:11:49;;;;;;;1999.90;999.90;;;25.40;99.90;;;;;;4995124;28;20488;-74
2023/05/08 11:14:16;;;;;;;1999.90;999.90;;;25.60;99.90;;;;;;4982027;28;20531;-74
2023/05/08 11:16:53;;;;;;;1999.90;999.90;;;25.60;99.90;;;;;;4994279;28;20435;-74
2023/05/08 11:19:23;;;;;;;1999.90;999.90;;;25.60;99.90;;;;;;4995209;28;20430;-74
2023/05/08 11:22:20;;;;;;;1999.90;999.90;;;25.70;99.90;;;;;;4995484;28;20708;-74
2023/05/08 11:24:48;;;;;;;1999.90;999.90;;;25.80;99.90;;;;;;4994668;28;20523;-74
2023/05/08 11:27:29;;;;;;;1999.90;999.90;;;25.80;99.90;;;;;;4995116;28;20770;-74
2023/05/08 11:30:17;;;;;;;1999.90;999.90;;;25.90;99.90;;;;;;4995368;28;20387;-74
2023/05/08 11:33:03;;;;;;;1999.90;999.90;;;26.10;99.90;;;;;;4993629;28;20391;-74
2023/05/08 11:35:49;;;;;;;1999.90;999.90;;;25.80;99.90;;;;;;5000482;28;20442;-74
2023/05/08 11:38:23;;;;;;;1999.90;999.90;;;25.70;99.90;;;;;;4988404;28;20409;-74
2023/05/08 11:41:09;;;;;;;1999.90;999.90;;;25.80;99.90;;;;;;4994177;28;20404;-72
2023/05/08 11:44:08;;;;;;;1999.90;999.90;;;26.00;99.90;;;;;;4994169;28;20409;-73
2023/05/08 11:46:36;;;;;;;1999.90;999.90;;;26.20;99.90;;;;;;4993721;28;20890;-74
2023/05/08 11:49:02;;;;;;;1999.90;999.90;;;26.50;99.90;;;;;;4993889;28;20720;-74
2023/05/08 11:51:32;;;;;;;1999.90;999.90;;;26.80;99.90;;;;;;4994619;28;20833;-74
2023/05/08 11:53:59;;;;;;;1999.90;999.90;;;27.10;99.90;;;;;;4994329;28;20174;-74
2023/05/08 11:56:25;;;;;;;1999.90;999.90;;;27.30;99.90;;;;;;4994623;28;20449;-74
2023/05/08 11:59:02;;;;;;;1999.90;999.90;;;27.60;99.90;;;;;;4995281;28;20958;-74
2023/05/08 12:01:29;;;;;;;1999.90;999.90;;;28.00;99.90;;;;;;4995239;28;20405;-74
2023/05/08 12:04:09;;;;;;;1999.90;999.90;;;28.30;99.90;;;;;;4995054;28;20500;-74
2023/05/08 12:06:38;;;;;;;1999.90;999.90;;;28.10;99.90;;;;;;4994497;28;20404;-74
2023/05/08 12:09:15;;;;;;;1999.90;999.90;;;28.20;99.90;;;;;;4994046;28;20395;-74
2023/05/08 12:11:43;;;;;;;1999.90;999.90;;;28.70;99.90;;;;;;4994547;28;20416;-74